Time;durP1;ratioP1;P1;durP2;ratioP2;P2;SDS_P1;SDS_P2;PMS_P1;PMS_P2;Temp;Humidity;BMP_temperature;BMP_pressure;BME280_temperature;BME280_humidity;BME280_pressure;Samples;Min_cycle;Max_cycle;Signal;HPM_P1;HPM_P2
2023/06/25 00:02:11;;;;;;;2.45;1.88;;;23.40;96.10;;;;;;5105304;27;20250;-77
2023/06/25 00:04:40;;;;;;;2.00;1.90;;;23.30;96.20;;;;;;5103816;27;20222;-78
2023/06/25 00:07:07;;;;;;;3.25;2.50;;;23.30;96.40;;;;;;5104991;27;20278;-76
2023/06/25 00:09:34;;;;;;;3.75;2.45;;;23.30;96.60;;;;;;5103303;27;20746;-77
2023/06/25 00:12:01;;;;;;;2.95;2.30;;;23.30;96.60;;;;;;5103376;27;20241;-79
2023/06/25 00:14:27;;;;;;;2.90;2.35;;;23.20;96.90;;;;;;5104008;27;20208;-77
2023/06/25 00:16:57;;;;;;;2.40;2.20;;;23.20;97.10;;;;;;5105244;27;20193;-77
2023/06/25 00:19:25;;;;;;;3.38;1.90;;;23.10;97.30;;;;;;5103772;27;20217;-78
2023/06/25 00:21:53;;;;;;;2.30;2.08;;;23.00;97.70;;;;;;5103130;27;20200;-77
2023/06/25 00:24:20;;;;;;;2.03;1.90;;;23.00;98.00;;;;;;5110102;27;20349;-76
2023/06/25 00:26:47;;;;;;;2.40;2.20;;;23.00;98.20;;;;;;5105923;27;20283;-78
2023/06/25 00:29:14;;;;;;;1.80;1.70;;;23.00;98.30;;;;;;5106461;27;20841;-76
2023/06/25 00:31:42;;;;;;;2.15;1.95;;;22.90;98.40;;;;;;5104731;27;20349;-78
2023/06/25 00:34:09;;;;;;;1.98;1.77;;;23.00;98.60;;;;;;5102259;27;20194;-77
2023/06/25 00:36:36;;;;;;;2.00;1.90;;;22.90;98.70;;;;;;5108402;27;20726;-76
2023/06/25 00:39:05;;;;;;;1.70;1.60;;;22.80;98.90;;;;;;5108872;27;20220;-77
2023/06/25 00:41:32;;;;;;;1.67;1.58;;;22.80;99.00;;;;;;5106129;27;20216;-77
2023/06/25 00:43:58;;;;;;;1.70;1.60;;;22.70;99.20;;;;;;5101102;27;20258;-77
2023/06/25 00:46:25;;;;;;;2.22;1.70;;;22.70;99.30;;;;;;5101771;27;20990;-77
2023/06/25 00:48:53;;;;;;;1.80;1.67;;;22.60;99.40;;;;;;5102637;27;20745;-77
2023/06/25 00:51:21;;;;;;;1.67;1.58;;;22.70;99.40;;;;;;5106808;27;20209;-77
2023/06/25 00:53:48;;;;;;;2.05;1.85;;;22.70;99.40;;;;;;5109246;27;20316;-78
2023/06/25 00:56:17;;;;;;;1.90;1.80;;;22.70;99.30;;;;;;5102289;27;20281;-77
2023/06/25 00:58:44;;;;;;;1.80;1.70;;;22.70;99.40;;;;;;5103332;27;20225;-76
2023/06/25 01:01:19;;;;;;;1.88;1.73;;;22.60;99.40;;;;;;5102572;27;20200;-78
2023/06/25 01:03:54;;;;;;;1.88;1.77;;;22.40;99.80;;;;;;5104636;27;20197;-77
2023/06/25 01:06:29;;;;;;;1.60;1.50;;;22.40;99.80;;;;;;5102067;27;20689;-77
2023/06/25 01:08:59;;;;;;;1.48;1.38;;;22.40;99.90;;;;;;5100819;27;20220;-77
2023/06/25 01:11:28;;;;;;;2.10;1.90;;;22.40;99.90;;;;;;5098683;27;20223;-77
2023/06/25 01:13:55;;;;;;;1.83;1.73;;;22.40;99.90;;;;;;5097338;27;20201;-76
2023/06/25 01:16:22;;;;;;;1.60;1.50;;;22.40;99.90;;;;;;5099216;27;20317;-77
2023/06/25 01:18:50;;;;;;;1.95;1.50;;;22.40;99.90;;;;;;5103450;27;20248;-77
2023/06/25 01:21:23;;;;;;;1.80;1.70;;;22.40;99.90;;;;;;5104812;27;20292;-77
2023/06/25 01:23:52;;;;;;;2.05;1.83;;;22.40;99.90;;;;;;5104996;27;20295;-78
2023/06/25 01:26:19;;;;;;;1.70;1.60;;;22.40;99.90;;;;;;5099812;27;20221;-77
2023/06/25 01:28:46;;;;;;;1.65;1.55;;;22.40;99.90;;;;;;5106258;27;20773;-78
2023/06/25 01:31:13;;;;;;;1.75;1.65;;;22.40;99.90;;;;;;5106925;27;20201;-77
2023/06/25 01:33:40;;;;;;;1.75;1.65;;;22.40;99.90;;;;;;5111023;27;20272;-79
2023/06/25 01:36:07;;;;;;;2.28;1.65;;;22.40;99.90;;;;;;5100146;27;20201;-78
2023/06/25 01:38:34;;;;;;;1.63;1.52;;;22.30;99.90;;;;;;5106040;27;20259;-78
2023/06/25 01:41:02;;;;;;;1.83;1.73;;;22.30;99.90;;;;;;5105825;27;20236;-77
2023/06/25 01:43:30;;;;;;;1.95;1.80;;;22.20;99.90;;;;;;5101305;27;20197;-78
2023/06/25 01:45:57;;;;;;;2.05;1.85;;;22.20;99.90;;;;;;5107239;27;20294;-77
2023/06/25 01:48:24;;;;;;;1.85;1.70;;;22.20;99.90;;;;;;5103456;27;20663;-77
2023/06/25 01:50:51;;;;;;;1.70;1.60;;;22.10;99.90;;;;;;5103221;27;20201;-77
2023/06/25 01:53:18;;;;;;;2.20;2.00;;;22.00;99.90;;;;;;5103626;27;20258;-77
2023/06/25 01:55:45;;;;;;;1.70;1.60;;;22.00;99.90;;;;;;5099217;27;20232;-76
2023/06/25 01:58:13;;;;;;;1.88;1.77;;;21.90;99.90;;;;;;5101322;27;20263;-78
2023/06/25 02:00:40;;;;;;;1.77;1.67;;;21.80;99.90;;;;;;5101554;27;20225;-77
2023/06/25 02:03:07;;;;;;;1.83;1.73;;;21.80;99.90;;;;;;5103512;27;20212;-78
2023/06/25 02:05:34;;;;;;;2.20;2.00;;;21.70;99.90;;;;;;5102217;27;20262;-77
2023/06/25 02:08:02;;;;;;;1.95;1.80;;;21.70;99.90;;;;;;5102493;27;20200;-78
2023/06/25 02:10:29;;;;;;;2.20;2.00;;;21.60;99.90;;;;;;5101490;27;20210;-77
2023/06/25 02:12:56;;;;;;;1.80;1.70;;;21.70;99.90;;;;;;5104081;27;20243;-77
2023/06/25 02:15:24;;;;;;;2.20;1.80;;;21.70;99.90;;;;;;5103667;27;20264;-76
2023/06/25 02:17:51;;;;;;;1.95;1.80;;;21.60;99.90;;;;;;5101773;28;20253;-77
2023/06/25 02:20:19;;;;;;;5.60;1.70;;;21.60;99.90;;;;;;5102252;27;20774;-77
2023/06/25 02:22:47;;;;;;;2.35;1.92;;;21.60;99.90;;;;;;5105113;28;20283;-78
2023/06/25 02:25:15;;;;;;;1.92;1.80;;;21.60;99.90;;;;;;5106592;27;20200;-77
2023/06/25 02:27:42;;;;;;;1.95;1.85;;;21.60;99.90;;;;;;5102417;28;20686;-77
2023/06/25 02:30:10;;;;;;;2.20;2.00;;;21.60;99.90;;;;;;5103756;28;20979;-78
2023/06/25 02:32:38;;;;;;;1.70;1.60;;;21.60;99.90;;;;;;5109464;27;21961;-77
2023/06/25 02:35:06;;;;;;;1.70;1.60;;;21.50;99.90;;;;;;5107342;27;20655;-77
2023/06/25 02:37:33;;;;;;;1.70;1.60;;;21.50;99.90;;;;;;5112382;27;20200;-77
2023/06/25 02:40:00;;;;;;;1.85;1.67;;;21.50;99.90;;;;;;5107886;27;20269;-77
2023/06/25 02:42:27;;;;;;;1.67;1.58;;;21.40;99.90;;;;;;5110441;27;20217;-77
2023/06/25 02:44:54;;;;;;;1.58;1.48;;;21.40;99.90;;;;;;5108904;28;20257;-77
2023/06/25 02:47:21;;;;;;;2.20;1.83;;;21.30;99.90;;;;;;5116706;28;20194;-79
2023/06/25 02:49:49;;;;;;;2.10;1.90;;;21.30;99.90;;;;;;5102438;28;20212;-77
2023/06/25 02:52:16;;;;;;;1.70;1.60;;;21.30;99.90;;;;;;5104968;28;20623;-77
2023/06/25 02:54:43;;;;;;;2.10;1.90;;;21.30;99.90;;;;;;5103483;28;20246;-77
2023/06/25 02:57:10;;;;;;;1.73;1.63;;;21.30;99.90;;;;;;5120392;28;20208;-78
2023/06/25 02:59:37;;;;;;;1.85;1.75;;;21.30;99.90;;;;;;5124647;28;20220;-78
2023/06/25 03:02:04;;;;;;;2.05;1.90;;;21.20;99.90;;;;;;5125791;28;20218;-78
2023/06/25 03:04:31;;;;;;;1.63;1.52;;;21.20;99.90;;;;;;5106889;28;20200;-77
2023/06/25 03:06:59;;;;;;;2.55;1.88;;;21.10;99.90;;;;;;5100072;28;20882;-77
2023/06/25 03:09:26;;;;;;;1.80;1.70;;;21.10;99.90;;;;;;5099695;28;20726;-77
2023/06/25 03:11:53;;;;;;;2.15;1.98;;;21.00;99.90;;;;;;5101015;28;20299;-78
2023/06/25 03:14:20;;;;;;;1.60;1.50;;;21.00;99.90;;;;;;5098808;28;20193;-77
2023/06/25 03:16:47;;;;;;;2.50;2.10;;;21.00;99.90;;;;;;5104760;28;20193;-77
2023/06/25 03:19:14;;;;;;;2.20;2.10;;;21.00;99.90;;;;;;5099009;28;20221;-77
2023/06/25 03:21:41;;;;;;;2.08;1.88;;;21.00;99.90;;;;;;5098928;28;20627;-77
2023/06/25 03:24:09;;;;;;;2.45;1.80;;;20.90;99.90;;;;;;5096565;28;20829;-77
2023/06/25 03:26:36;;;;;;;1.95;1.85;;;21.00;99.90;;;;;;5100484;28;20261;-78
2023/06/25 03:29:03;;;;;;;1.70;1.60;;;20.90;99.90;;;;;;5102162;28;20248;-77
2023/06/25 03:31:30;;;;;;;1.90;1.80;;;20.90;99.90;;;;;;5097183;28;20197;-76
2023/06/25 03:33:57;;;;;;;2.00;1.90;;;20.90;99.90;;;;;;5102200;27;20257;-77
2023/06/25 03:36:24;;;;;;;1.80;1.70;;;20.90;99.90;;;;;;5096121;28;20229;-78
2023/06/25 03:38:51;;;;;;;2.00;1.80;;;20.90;99.90;;;;;;5105655;28;20320;-78
2023/06/25 03:41:19;;;;;;;2.00;1.77;;;20.80;99.90;;;;;;5100478;28;20217;-77
2023/06/25 03:43:46;;;;;;;1.90;1.80;;;20.90;99.90;;;;;;5101250;28;20632;-77
2023/06/25 03:46:13;;;;;;;1.73;1.63;;;20.80;99.90;;;;;;5104755;28;20204;-77
2023/06/25 03:48:42;;;;;;;1.67;1.58;;;20.80;99.90;;;;;;5097944;28;20257;-77
2023/06/25 03:51:09;;;;;;;1.77;1.67;;;20.70;99.90;;;;;;5096179;28;20211;-77
2023/06/25 03:53:38;;;;;;;1.77;1.67;;;20.70;99.90;;;;;;5098084;28;20770;-77
2023/06/25 03:56:05;;;;;;;2.10;1.90;;;20.80;99.90;;;;;;5103186;27;20555;-78
2023/06/25 03:58:34;;;;;;;2.40;1.80;;;20.90;99.90;;;;;;5102097;27;20208;-77
2023/06/25 04:01:01;;;;;;;2.20;2.10;;;21.00;99.90;;;;;;5100685;27;20280;-78
2023/06/25 04:03:28;;;;;;;2.10;2.00;;;21.20;99.90;;;;;;5102078;27;20200;-76
2023/06/25 04:05:55;;;;;;;2.22;2.03;;;21.30;99.90;;;;;;5101498;27;20288;-78
2023/06/25 04:08:22;;;;;;;2.22;2.03;;;21.40;99.90;;;;;;5101978;27;20227;-78
2023/06/25 04:10:49;;;;;;;1.95;1.85;;;21.50;99.90;;;;;;5105538;27;20209;-77
2023/06/25 04:13:16;;;;;;;2.08;1.88;;;21.50;99.90;;;;;;5100202;27;20754;-77
2023/06/25 04:15:44;;;;;;;1.90;1.80;;;21.50;99.90;;;;;;5102826;27;20296;-77
2023/06/25 04:18:11;;;;;;;2.08;1.88;;;21.60;99.90;;;;;;5098583;27;20241;-77
2023/06/25 04:20:38;;;;;;;1.90;1.80;;;21.70;99.90;;;;;;5101406;27;20228;-78
2023/06/25 04:23:05;;;;;;;1.90;1.80;;;21.80;99.90;;;;;;5107533;27;20189;-78
2023/06/25 04:25:33;;;;;;;1.60;1.50;;;21.80;99.90;;;;;;5106189;27;20269;-77
2023/06/25 04:28:00;;;;;;;1.80;1.70;;;21.90;99.90;;;;;;5097484;27;21132;-76
2023/06/25 04:30:27;;;;;;;1.98;1.88;;;21.80;99.90;;;;;;5103200;27;20266;-77
2023/06/25 04:32:55;;;;;;;1.70;1.60;;;21.80;99.90;;;;;;5101378;27;20197;-78
2023/06/25 04:35:22;;;;;;;1.80;1.70;;;21.80;99.90;;;;;;5098687;27;20510;-77
2023/06/25 04:37:49;;;;;;;2.78;2.05;;;21.70;99.90;;;;;;5100492;27;20320;-77
2023/06/25 04:40:16;;;;;;;1.88;1.77;;;21.50;99.90;;;;;;5103205;27;20248;-77
2023/06/25 04:42:43;;;;;;;2.38;1.77;;;21.60;99.90;;;;;;5102481;27;20286;-77
2023/06/25 04:45:10;;;;;;;1.70;1.60;;;21.70;99.90;;;;;;5103645;27;20250;-77
2023/06/25 04:47:37;;;;;;;1.88;1.70;;;21.90;99.90;;;;;;5100237;27;20197;-78
2023/06/25 04:50:06;;;;;;;1.80;1.70;;;22.10;99.90;;;;;;5099951;27;20706;-77
2023/06/25 04:52:33;;;;;;;1.70;1.60;;;22.10;99.90;;;;;;5100973;27;20233;-76
2023/06/25 04:55:00;;;;;;;2.00;1.90;;;22.00;99.90;;;;;;5099093;27;20284;-78
2023/06/25 04:57:27;;;;;;;2.33;2.13;;;21.70;99.90;;;;;;5096651;27;20209;-78
2023/06/25 04:59:54;;;;;;;2.40;2.20;;;21.50;99.90;;;;;;5099759;27;20252;-76
2023/06/25 05:02:21;;;;;;;2.08;1.88;;;21.20;99.90;;;;;;5097376;27;20750;-77
2023/06/25 05:04:48;;;;;;;1.85;1.75;;;21.10;99.90;;;;;;5099029;27;20293;-78
2023/06/25 05:07:16;;;;;;;2.15;1.98;;;21.10;99.90;;;;;;5101561;27;20879;-78
2023/06/25 05:09:44;;;;;;;1.80;1.70;;;21.30;99.90;;;;;;5098253;27;20308;-77
2023/06/25 05:12:11;;;;;;;3.53;1.83;;;21.60;99.90;;;;;;5103581;27;22717;-77
2023/06/25 05:14:38;;;;;;;2.00;1.90;;;21.80;99.90;;;;;;5103083;27;20232;-78
2023/06/25 05:17:05;;;;;;;2.25;2.05;;;22.00;99.90;;;;;;5109315;27;20283;-78
2023/06/25 05:19:32;;;;;;;1.85;1.75;;;22.00;99.90;;;;;;5116774;27;20774;-77
2023/06/25 05:21:59;;;;;;;3.78;2.10;;;22.00;99.90;;;;;;5103912;27;20333;-78
2023/06/25 05:24:28;;;;;;;2.00;1.90;;;21.70;99.90;;;;;;5096688;28;20205;-77
2023/06/25 05:26:56;;;;;;;2.30;2.10;;;21.70;99.90;;;;;;5097962;27;20201;-77
2023/06/25 05:29:23;;;;;;;2.38;2.17;;;21.70;99.90;;;;;;5101760;27;20951;-77
2023/06/25 05:31:50;;;;;;;2.95;2.10;;;21.60;99.90;;;;;;5099163;27;20623;-78
2023/06/25 05:34:17;;;;;;;2.83;2.42;;;21.80;99.90;;;;;;5105092;27;20264;-78
2023/06/25 05:36:44;;;;;;;2.20;2.10;;;22.00;99.90;;;;;;5098615;27;20761;-78
2023/06/25 05:39:11;;;;;;;2.30;2.10;;;22.10;99.90;;;;;;5098014;27;20334;-77
2023/06/25 05:41:40;;;;;;;2.28;2.08;;;21.90;99.90;;;;;;5104037;27;20246;-77
2023/06/25 05:44:08;;;;;;;2.50;2.30;;;21.70;99.90;;;;;;5103457;27;20296;-77
2023/06/25 05:46:35;;;;;;;3.15;2.47;;;21.60;99.90;;;;;;5098698;27;20208;-77
2023/06/25 05:49:02;;;;;;;2.65;2.13;;;21.60;99.90;;;;;;5095172;27;20320;-77
2023/06/25 05:51:29;;;;;;;2.50;2.28;;;21.60;99.90;;;;;;5100423;27;20217;-77
2023/06/25 05:53:56;;;;;;;2.53;2.33;;;21.70;99.90;;;;;;5099891;27;20249;-77
2023/06/25 05:56:23;;;;;;;2.65;2.45;;;21.70;99.90;;;;;;5104376;27;20262;-77
2023/06/25 05:58:51;;;;;;;2.40;2.20;;;21.70;99.90;;;;;;5102237;27;20293;-78
2023/06/25 06:01:18;;;;;;;2.67;2.47;;;21.80;99.90;;;;;;5110442;27;20210;-78
2023/06/25 06:03:45;;;;;;;2.47;2.28;;;21.80;99.90;;;;;;5100460;27;20192;-77
2023/06/25 06:06:13;;;;;;;2.45;2.22;;;21.90;99.90;;;;;;5104182;27;21077;-77
2023/06/25 06:08:41;;;;;;;4.43;2.47;;;22.10;99.90;;;;;;5099943;27;20254;-78
2023/06/25 06:11:08;;;;;;;2.35;2.15;;;22.30;99.90;;;;;;5097059;27;20250;-77
2023/06/25 06:13:35;;;;;;;2.10;2.00;;;22.50;99.90;;;;;;5097512;27;20238;-77
2023/06/25 06:16:04;;;;;;;2.50;2.30;;;22.80;99.90;;;;;;5100200;27;20197;-78
2023/06/25 06:18:31;;;;;;;2.53;2.33;;;22.90;99.90;;;;;;5107949;27;20228;-77
2023/06/25 06:20:58;;;;;;;2.45;2.25;;;22.70;99.90;;;;;;5101749;27;20835;-78
2023/06/25 06:23:25;;;;;;;2.53;2.33;;;22.60;99.90;;;;;;5098139;27;20228;-78
2023/06/25 06:25:52;;;;;;;3.20;2.90;;;22.50;99.90;;;;;;5101317;27;20284;-79
2023/06/25 06:28:19;;;;;;;2.70;2.45;;;22.50;99.90;;;;;;5103586;27;20304;-77
2023/06/25 06:30:46;;;;;;;2.55;2.33;;;22.50;99.90;;;;;;5095777;27;20220;-78
2023/06/25 06:33:14;;;;;;;2.95;2.60;;;22.50;99.90;;;;;;5101846;27;20653;-77
2023/06/25 06:35:42;;;;;;;2.75;2.55;;;22.70;99.90;;;;;;5097378;28;20257;-77
2023/06/25 06:38:08;;;;;;;2.60;2.40;;;22.80;99.90;;;;;;5097944;27;20241;-77
2023/06/25 06:40:35;;;;;;;5.20;2.53;;;23.00;99.90;;;;;;5107123;27;20401;-78
2023/06/25 06:43:02;;;;;;;2.53;2.33;;;23.20;99.90;;;;;;5119395;28;20226;-80
2023/06/25 06:45:29;;;;;;;2.55;2.35;;;23.20;99.90;;;;;;5125798;28;20216;-78
2023/06/25 06:47:56;;;;;;;4.90;2.80;;;23.10;99.90;;;;;;5120675;28;20196;-77
2023/06/25 06:50:25;;;;;;;2.35;2.15;;;23.10;99.90;;;;;;5106698;28;20223;-78
2023/06/25 06:52:52;;;;;;;2.85;2.65;;;23.20;99.90;;;;;;5099453;28;20284;-78
2023/06/25 06:55:19;;;;;;;2.50;2.30;;;23.30;99.90;;;;;;5100214;28;20199;-78
2023/06/25 06:57:46;;;;;;;4.65;2.38;;;23.30;99.90;;;;;;5101320;28;20222;-79
2023/06/25 07:00:15;;;;;;;2.92;2.40;;;23.40;99.90;;;;;;5106088;28;22036;-78
2023/06/25 07:02:42;;;;;;;3.70;2.72;;;23.50;99.90;;;;;;5102845;28;20659;-77
2023/06/25 07:05:09;;;;;;;2.50;2.30;;;23.60;99.90;;;;;;5097977;28;20285;-77
2023/06/25 07:07:38;;;;;;;2.67;2.40;;;23.60;99.90;;;;;;5110778;28;20283;-77
2023/06/25 07:10:05;;;;;;;2.35;2.15;;;23.70;99.90;;;;;;5107119;28;20245;-77
2023/06/25 07:12:33;;;;;;;2.33;2.17;;;23.80;99.90;;;;;;5110139;28;20208;-78
2023/06/25 07:15:00;;;;;;;2.47;2.28;;;24.00;99.90;;;;;;5103910;28;20208;-77
2023/06/25 07:17:27;;;;;;;2.67;2.40;;;24.10;99.90;;;;;;5107174;28;20241;-78
2023/06/25 07:19:54;;;;;;;2.75;2.47;;;24.10;99.90;;;;;;5098339;28;20832;-77
2023/06/25 07:22:21;;;;;;;2.53;2.33;;;24.20;99.90;;;;;;5098300;28;20312;-78
2023/06/25 07:24:49;;;;;;;2.63;2.42;;;24.40;99.90;;;;;;5099831;28;20773;-77
2023/06/25 07:27:16;;;;;;;2.80;2.60;;;24.50;99.90;;;;;;5101989;27;20237;-78
2023/06/25 07:29:43;;;;;;;2.92;2.63;;;24.40;99.90;;;;;;5102465;28;20315;-78
2023/06/25 07:32:10;;;;;;;3.10;2.70;;;24.20;99.90;;;;;;5103332;27;20216;-77
2023/06/25 07:34:37;;;;;;;2.78;2.58;;;24.30;99.90;;;;;;5105582;27;20269;-78
2023/06/25 07:37:06;;;;;;;3.00;2.80;;;24.30;99.90;;;;;;5107731;27;20308;-78
2023/06/25 07:39:33;;;;;;;2.50;2.30;;;24.50;99.90;;;;;;5110145;27;20253;-77
2023/06/25 07:42:02;;;;;;;2.97;2.78;;;24.70;99.90;;;;;;5095782;27;20266;-78
2023/06/25 07:44:29;;;;;;;2.58;2.38;;;24.70;99.90;;;;;;5102895;27;20654;-77
2023/06/25 07:46:56;;;;;;;2.85;2.65;;;24.80;99.90;;;;;;5100522;27;20292;-77
2023/06/25 07:49:23;;;;;;;2.60;2.40;;;25.00;99.90;;;;;;5102688;27;20209;-78
2023/06/25 07:51:51;;;;;;;2.92;2.63;;;25.00;99.90;;;;;;5104962;27;20942;-78
2023/06/25 07:54:19;;;;;;;2.72;2.53;;;25.20;99.90;;;;;;5083578;27;21275;-77
2023/06/25 07:56:46;;;;;;;2.72;2.53;;;25.40;99.90;;;;;;5101934;27;20259;-76
2023/06/25 07:59:14;;;;;;;2.65;2.42;;;25.50;99.90;;;;;;5106133;27;20215;-77
2023/06/25 08:01:42;;;;;;;2.55;2.35;;;25.50;99.90;;;;;;5097438;27;20299;-78
2023/06/25 08:04:09;;;;;;;2.40;2.20;;;25.50;99.90;;;;;;5100353;27;20226;-78
2023/06/25 08:06:36;;;;;;;2.42;2.15;;;25.80;99.90;;;;;;5100964;27;20201;-78
2023/06/25 08:09:03;;;;;;;3.03;2.80;;;26.00;99.90;;;;;;5102585;27;20263;-78
2023/06/25 08:11:30;;;;;;;2.72;2.25;;;26.00;99.90;;;;;;5105456;27;20228;-77
2023/06/25 08:13:57;;;;;;;2.90;2.70;;;25.90;99.90;;;;;;5105285;27;20192;-78
2023/06/25 08:16:25;;;;;;;2.55;2.35;;;25.80;99.90;;;;;;5106493;27;20249;-79
2023/06/25 08:18:52;;;;;;;2.60;2.40;;;26.00;99.90;;;;;;5104214;27;20255;-78
2023/06/25 08:21:19;;;;;;;2.60;2.40;;;26.10;99.90;;;;;;5105632;27;20707;-78
2023/06/25 08:23:46;;;;;;;2.60;2.40;;;26.10;99.90;;;;;;5103104;27;20232;-78
2023/06/25 08:26:15;;;;;;;2.40;2.20;;;26.10;99.90;;;;;;5105188;27;20295;-78
2023/06/25 08:28:42;;;;;;;2.30;2.17;;;26.00;99.90;;;;;;5108500;27;20216;-77
2023/06/25 08:31:09;;;;;;;2.70;2.50;;;26.00;99.90;;;;;;5103271;27;20675;-77
2023/06/25 08:33:38;;;;;;;2.60;2.40;;;26.10;99.90;;;;;;5104948;27;20283;-78
2023/06/25 08:36:05;;;;;;;2.92;2.72;;;26.10;99.90;;;;;;5108231;27;20300;-78
2023/06/25 08:38:33;;;;;;;2.45;2.25;;;26.20;99.90;;;;;;5103410;27;20823;-78
2023/06/25 08:41:00;;;;;;;2.65;2.45;;;26.50;99.90;;;;;;5104773;27;20227;-78
2023/06/25 08:43:27;;;;;;;2.78;2.58;;;26.70;99.90;;;;;;5104488;27;20221;-78
2023/06/25 08:45:54;;;;;;;2.80;2.60;;;26.70;99.90;;;;;;5099457;27;21114;-77
2023/06/25 08:48:23;;;;;;;3.00;2.60;;;26.60;99.40;;;;;;5102880;27;20249;-78
2023/06/25 08:50:55;;;;;;;2.72;2.53;;;26.70;99.40;;;;;;5108040;27;20561;-78
2023/06/25 08:53:24;;;;;;;2.53;2.33;;;26.90;99.60;;;;;;5102528;27;20205;-78
2023/06/25 08:55:54;;;;;;;2.40;2.20;;;27.00;99.20;;;;;;5108245;27;20224;-77
2023/06/25 08:58:21;;;;;;;2.85;2.65;;;27.10;98.70;;;;;;5103256;27;20208;-78
2023/06/25 09:00:49;;;;;;;2.25;2.05;;;27.30;99.20;;;;;;5107860;27;20185;-78
2023/06/25 09:03:16;;;;;;;2.40;2.20;;;27.30;98.10;;;;;;5112534;27;20314;-78
2023/06/25 09:05:53;;;;;;;2.15;2.00;;;27.30;98.10;;;;;;5115315;27;20244;-77
2023/06/25 09:08:21;;;;;;;2.42;2.22;;;27.40;97.10;;;;;;5102654;27;20205;-77
2023/06/25 09:10:50;;;;;;;2.60;2.40;;;27.50;97.60;;;;;;5100582;27;20434;-78
2023/06/25 09:13:22;;;;;;;2.95;2.55;;;27.40;97.20;;;;;;5104058;27;20231;-77
2023/06/25 09:15:49;;;;;;;2.45;2.25;;;27.40;96.80;;;;;;5100651;27;20201;-78
2023/06/25 09:18:20;;;;;;;2.63;2.42;;;27.30;97.00;;;;;;5103411;27;20210;-78
2023/06/25 09:20:48;;;;;;;2.10;1.90;;;27.30;96.80;;;;;;5101596;27;20244;-78
2023/06/25 09:23:21;;;;;;;2.00;1.90;;;27.40;96.80;;;;;;5098696;27;20308;-77
2023/06/25 09:25:49;;;;;;;2.45;2.25;;;27.80;97.30;;;;;;5110329;27;20212;-78
2023/06/25 09:28:16;;;;;;;2.80;2.20;;;27.80;96.10;;;;;;5102520;27;20212;-77
2023/06/25 09:30:44;;;;;;;2.17;2.05;;;27.80;95.20;;;;;;5103825;27;20274;-78
2023/06/25 09:33:11;;;;;;;2.10;2.00;;;28.00;95.70;;;;;;5104882;27;20253;-78
2023/06/25 09:35:39;;;;;;;2.55;2.38;;;28.10;95.80;;;;;;5097853;27;20228;-79
2023/06/25 09:38:06;;;;;;;2.72;2.53;;;28.10;96.20;;;;;;5103761;27;20216;-78
2023/06/25 09:40:35;;;;;;;2.40;2.20;;;28.00;96.50;;;;;;5109786;27;20291;-78
2023/06/25 09:43:05;;;;;;;2.40;2.20;;;27.80;96.70;;;;;;5103034;27;20213;-78
2023/06/25 09:45:34;;;;;;;3.05;2.20;;;27.70;96.40;;;;;;5100940;27;20209;-77
2023/06/25 09:48:01;;;;;;;2.28;2.10;;;27.80;96.10;;;;;;5100350;27;20197;-78
2023/06/25 09:50:32;;;;;;;2.35;2.13;;;27.90;95.80;;;;;;5107256;27;20236;-78
2023/06/25 09:53:03;;;;;;;2.92;2.28;;;28.10;96.20;;;;;;5103325;27;20223;-78
2023/06/25 09:55:30;;;;;;;2.50;2.30;;;28.20;96.40;;;;;;5106438;27;20228;-78
2023/06/25 09:58:00;;;;;;;2.42;2.22;;;28.00;96.20;;;;;;5096341;27;20927;-78
2023/06/25 10:00:27;;;;;;;2.70;2.50;;;28.20;96.30;;;;;;5102438;27;20273;-78
2023/06/25 10:02:54;;;;;;;2.70;2.50;;;28.40;97.10;;;;;;5099036;28;20294;-77
2023/06/25 10:05:22;;;;;;;3.08;2.78;;;28.50;96.80;;;;;;5096878;27;20275;-77
2023/06/25 10:07:49;;;;;;;2.40;2.20;;;28.40;97.10;;;;;;5104276;27;20296;-78
2023/06/25 10:10:23;;;;;;;2.63;2.40;;;28.50;97.10;;;;;;5096970;27;20212;-77
2023/06/25 10:12:51;;;;;;;3.22;2.65;;;28.40;96.60;;;;;;5098981;27;20280;-77
2023/06/25 10:15:29;;;;;;;4.15;2.58;;;28.50;97.80;;;;;;5096333;27;20248;-78
2023/06/25 10:17:59;;;;;;;3.70;2.10;;;28.50;99.10;;;;;;5101508;27;20212;-78
2023/06/25 10:20:27;;;;;;;2.22;2.03;;;28.70;98.20;;;;;;5095635;27;20728;-77
2023/06/25 10:23:12;;;;;;;2.35;2.15;;;28.50;98.40;;;;;;5103425;27;20640;-77
2023/06/25 10:25:40;;;;;;;5.18;2.47;;;28.80;98.70;;;;;;5095063;27;20194;-77
2023/06/25 10:28:10;;;;;;;2.30;2.10;;;28.60;98.80;;;;;;5105142;27;20253;-77
2023/06/25 10:30:40;;;;;;;2.42;2.22;;;28.70;99.20;;;;;;5106356;27;20221;-77
2023/06/25 10:33:08;;;;;;;1.92;1.83;;;28.80;99.60;;;;;;5100617;28;20208;-77
2023/06/25 10:35:41;;;;;;;2.25;2.08;;;29.00;99.30;;;;;;5093900;27;20232;-76
2023/06/25 10:38:11;;;;;;;2.40;2.20;;;29.40;99.00;;;;;;5094346;27;20316;-77
2023/06/25 10:40:40;;;;;;;2.85;2.00;;;29.40;98.70;;;;;;5094325;28;20277;-77
2023/06/25 10:43:07;;;;;;;2.78;2.50;;;29.20;98.00;;;;;;5094252;28;20483;-77
2023/06/25 10:45:34;;;;;;;2.60;2.00;;;29.20;98.00;;;;;;5098614;28;20293;-77
2023/06/25 10:48:05;;;;;;;2.35;2.15;;;29.30;97.90;;;;;;5092079;28;20198;-77
2023/06/25 10:50:32;;;;;;;3.35;2.25;;;29.30;98.30;;;;;;5096952;28;20224;-77
2023/06/25 10:53:00;;;;;;;2.55;2.35;;;29.30;98.80;;;;;;5105832;28;20219;-77
2023/06/25 10:55:27;;;;;;;2.38;2.17;;;29.50;98.30;;;;;;5096562;28;20300;-78
2023/06/25 10:57:55;;;;;;;2.40;2.20;;;29.70;98.40;;;;;;5094887;28;20220;-76
2023/06/25 11:00:23;;;;;;;3.22;2.35;;;29.80;98.00;;;;;;5094007;28;20221;-75
2023/06/25 11:02:52;;;;;;;2.20;2.05;;;29.80;98.40;;;;;;5093859;27;20280;-76
2023/06/25 11:05:21;;;;;;;2.50;2.30;;;29.90;97.90;;;;;;5093976;27;20208;-76
2023/06/25 11:07:54;;;;;;;3.05;2.55;;;29.70;96.70;;;;;;5100007;27;20210;-75
2023/06/25 11:10:23;;;;;;;2.50;2.30;;;29.70;97.20;;;;;;5097770;27;20233;-77
2023/06/25 11:12:50;;;;;;;2.20;2.10;;;30.00;97.20;;;;;;5098365;27;20629;-77
2023/06/25 11:15:18;;;;;;;3.75;2.25;;;30.20;97.20;;;;;;5099283;27;20304;-77
2023/06/25 11:17:45;;;;;;;2.65;2.45;;;30.30;96.00;;;;;;5099238;27;20263;-77
2023/06/25 11:20:12;;;;;;;2.40;2.20;;;30.40;95.00;;;;;;5102482;27;20238;-77
2023/06/25 11:22:44;;;;;;;2.65;2.42;;;30.50;95.00;;;;;;5097280;27;20482;-77
2023/06/25 11:25:12;;;;;;;2.72;2.22;;;30.50;94.10;;;;;;5097714;27;20229;-77
2023/06/25 11:27:40;;;;;;;2.20;2.10;;;30.50;93.70;;;;;;5094685;27;20219;-77
2023/06/25 11:30:08;;;;;;;3.30;2.13;;;30.50;93.90;;;;;;5097889;27;20713;-78
2023/06/25 11:32:36;;;;;;;2.40;2.20;;;30.70;93.80;;;;;;5096290;27;20193;-77
2023/06/25 11:35:11;;;;;;;2.50;2.25;;;30.60;93.60;;;;;;5095934;27;20374;-77
2023/06/25 11:37:47;;;;;;;2.85;2.50;;;30.60;93.00;;;;;;5095978;27;20201;-77
2023/06/25 11:40:22;;;;;;;2.72;2.53;;;30.70;93.40;;;;;;5101123;27;20312;-78
2023/06/25 11:42:49;;;;;;;2.63;2.20;;;30.80;91.50;;;;;;5098692;27;20223;-77
2023/06/25 11:45:16;;;;;;;2.67;2.47;;;30.80;91.60;;;;;;5099537;27;20283;-77
2023/06/25 11:47:50;;;;;;;3.13;2.20;;;31.00;90.90;;;;;;5092470;27;20255;-75
2023/06/25 11:50:17;;;;;;;2.67;2.42;;;30.90;90.50;;;;;;5096840;27;20235;-77
2023/06/25 11:52:46;;;;;;;2.38;2.17;;;30.90;91.30;;;;;;5094883;27;20331;-75
2023/06/25 11:55:13;;;;;;;2.55;2.35;;;30.90;92.20;;;;;;5097625;27;20638;-76
2023/06/25 11:57:40;;;;;;;3.38;2.13;;;30.90;92.20;;;;;;5093813;27;20204;-76
2023/06/25 12:00:08;;;;;;;2.67;2.42;;;30.90;91.20;;;;;;5095718;27;20212;-77
2023/06/25 12:02:35;;;;;;;2.80;2.58;;;31.00;90.20;;;;;;5096644;27;20222;-76
2023/06/25 12:05:02;;;;;;;3.58;3.00;;;31.10;91.30;;;;;;5097651;27;20221;-77
2023/06/25 12:07:29;;;;;;;3.25;2.50;;;31.20;90.60;;;;;;5098595;27;20643;-78
2023/06/25 12:09:58;;;;;;;2.90;2.60;;;31.30;90.10;;;;;;5098135;27;20214;-77
2023/06/25 12:12:25;;;;;;;2.75;2.35;;;31.30;90.20;;;;;;5097752;27;20226;-79
2023/06/25 12:14:52;;;;;;;2.50;2.30;;;31.30;90.40;;;;;;5095413;27;20689;-78
2023/06/25 12:17:19;;;;;;;3.80;2.42;;;31.30;90.00;;;;;;5098323;27;20341;-78
2023/06/25 12:19:46;;;;;;;2.20;2.10;;;31.30;90.10;;;;;;5098299;27;20228;-77
2023/06/25 12:22:13;;;;;;;2.45;2.25;;;31.40;88.50;;;;;;5096027;27;20296;-75
2023/06/25 12:24:40;;;;;;;2.60;2.40;;;31.50;90.00;;;;;;5099724;27;20204;-77
2023/06/25 12:27:08;;;;;;;2.60;2.40;;;31.50;89.70;;;;;;5098069;27;20197;-77
2023/06/25 12:29:35;;;;;;;2.53;2.33;;;31.50;89.10;;;;;;5097975;27;20856;-78
2023/06/25 12:32:02;;;;;;;2.42;2.22;;;31.50;89.90;;;;;;5100716;27;20190;-78
2023/06/25 12:34:29;;;;;;;2.50;2.10;;;31.40;90.20;;;;;;5097887;27;20201;-78
2023/06/25 12:36:56;;;;;;;2.83;2.47;;;31.40;90.50;;;;;;5097533;27;20276;-78
2023/06/25 12:39:23;;;;;;;2.70;2.50;;;31.40;90.90;;;;;;5106769;27;20225;-76
2023/06/25 12:41:50;;;;;;;2.67;2.47;;;31.50;91.10;;;;;;5112363;27;20200;-79
2023/06/25 12:44:18;;;;;;;2.22;2.08;;;31.60;90.40;;;;;;5098757;27;20335;-78
2023/06/25 12:46:45;;;;;;;2.65;2.30;;;31.70;90.20;;;;;;5097441;27;20292;-78
2023/06/25 12:49:12;;;;;;;2.40;2.20;;;31.70;90.20;;;;;;5099947;27;20247;-78
2023/06/25 12:51:39;;;;;;;2.30;2.10;;;31.80;90.00;;;;;;5101661;27;20204;-78